createdAt,value
2018-07-22T00:02:16.936Z,61.90
2018-07-22T00:04:57.767Z,62.10
2018-07-22T00:07:38.903Z,62.70
2018-07-22T00:10:25.671Z,63.70
2018-07-22T00:13:06.765Z,63.40
2018-07-22T00:15:47.815Z,64.10
2018-07-22T00:18:29.051Z,64.50
2018-07-22T00:21:09.644Z,64.70
2018-07-22T00:23:50.597Z,65.30
2018-07-22T00:26:31.793Z,65.30
2018-07-22T00:29:12.610Z,65.30
2018-07-22T00:31:53.238Z,65.10
2018-07-22T00:34:33.912Z,65.30
2018-07-22T00:37:14.366Z,65.50
2018-07-22T00:39:54.952Z,65.70
2018-07-22T00:42:35.821Z,66.30
2018-07-22T00:45:22.997Z,66.20
2018-07-22T00:48:03.968Z,66.00
2018-07-22T00:50:44.927Z,65.70
2018-07-22T00:53:25.857Z,66.50
2018-07-22T00:56:07.218Z,66.20
2018-07-22T00:58:48.460Z,66.50
2018-07-22T01:01:29.063Z,66.70
2018-07-22T01:04:10.268Z,66.20
2018-07-22T01:06:51.524Z,66.60
2018-07-22T01:09:32.112Z,67.20
2018-07-22T01:12:13.424Z,66.60
2018-07-22T01:14:53.827Z,65.80
2018-07-22T01:17:34.825Z,65.40
2018-07-22T01:20:15.404Z,65.70
2018-07-22T01:22:56.300Z,65.30
2018-07-22T01:25:36.947Z,65.20
2018-07-22T01:28:17.866Z,65.60
2018-07-22T01:30:58.440Z,65.30
2018-07-22T01:33:39.254Z,65.30
2018-07-22T01:36:19.815Z,66.70
2018-07-22T01:39:01.392Z,67.50
2018-07-22T01:41:42.260Z,65.70
2018-07-22T01:44:23.209Z,65.50
2018-07-22T01:47:04.115Z,66.50
2018-07-22T01:49:44.798Z,67.20
2018-07-22T01:52:25.694Z,66.80
2018-07-22T01:55:06.507Z,68.40
2018-07-22T01:57:47.026Z,68.50
2018-07-22T02:00:28.029Z,69.00
2018-07-22T02:03:08.943Z,69.10
2018-07-22T02:05:49.979Z,69.80
2018-07-22T02:08:30.690Z,69.50
2018-07-22T02:11:11.570Z,70.00
2018-07-22T02:13:52.489Z,70.80
2018-07-22T02:16:33.751Z,70.20
2018-07-22T02:19:14.156Z,70.30
2018-07-22T02:21:54.893Z,70.40
2018-07-22T02:24:35.735Z,70.20
2018-07-22T02:27:16.564Z,70.70
2018-07-22T02:29:57.095Z,70.70
2018-07-22T02:32:38.732Z,71.20
2018-07-22T02:35:19.329Z,71.10
2018-07-22T02:37:59.826Z,71.40
2018-07-22T02:40:40.279Z,71.40
2018-07-22T02:43:20.684Z,71.70
2018-07-22T02:46:01.853Z,71.80
2018-07-22T02:48:42.604Z,72.70
2018-07-22T02:51:23.546Z,72.70
2018-07-22T02:54:04.733Z,75.80
2018-07-22T02:56:46.273Z,77.60
2018-07-22T02:59:26.792Z,79.40
2018-07-22T03:02:07.325Z,79.10
2018-07-22T03:04:48.253Z,80.10
2018-07-22T03:07:28.883Z,81.30
2018-07-22T03:10:09.653Z,82.40
2018-07-22T03:12:50.437Z,82.70
2018-07-22T03:15:31.132Z,83.90
2018-07-22T03:18:11.623Z,83.40
2018-07-22T03:20:52.045Z,84.40
2018-07-22T03:23:32.645Z,85.10
2018-07-22T03:26:13.377Z,86.40
2018-07-22T03:28:54.132Z,87.30
2018-07-22T03:31:34.793Z,87.60
2018-07-22T03:34:15.517Z,88.10
2018-07-22T03:36:56.108Z,88.50
2018-07-22T03:39:37.332Z,88.60
2018-07-22T03:44:59.358Z,89.10
2018-07-22T03:47:40.692Z,89.40
2018-07-22T03:50:21.501Z,89.70
2018-07-22T03:53:02.074Z,89.50
2018-07-22T03:55:43.049Z,89.90
2018-07-22T03:58:24.323Z,90.10
2018-07-22T04:01:05.371Z,90.10
2018-07-22T04:03:45.885Z,90.20
2018-07-22T04:06:26.492Z,90.20
2018-07-22T04:09:09.661Z,90.20
2018-07-22T04:11:50.969Z,90.40
2018-07-22T04:14:31.641Z,90.30
2018-07-22T04:17:13.726Z,90.30
2018-07-22T04:19:54.267Z,90.10
2018-07-22T04:22:34.969Z,90.00
2018-07-22T04:25:15.703Z,89.90
2018-07-22T04:27:56.634Z,90.60
2018-07-22T04:30:37.685Z,90.00
2018-07-22T04:33:18.681Z,89.70
2018-07-22T04:35:59.328Z,89.60
2018-07-22T04:38:40.144Z,89.50
2018-07-22T04:41:20.949Z,89.20
2018-07-22T04:44:01.710Z,89.30
2018-07-22T04:46:42.214Z,88.80
2018-07-22T04:49:23.306Z,88.70
2018-07-22T04:52:04.414Z,88.40
2018-07-22T04:54:45.361Z,88.50
2018-07-22T04:57:25.917Z,88.40
2018-07-22T05:00:07.044Z,88.30
2018-07-22T05:02:48.033Z,88.30
2018-07-22T05:05:28.699Z,88.00
2018-07-22T05:08:09.228Z,88.50
2018-07-22T05:10:49.755Z,88.20
2018-07-22T05:13:30.700Z,88.00
2018-07-22T05:16:11.518Z,88.00
2018-07-22T05:21:32.846Z,88.20
2018-07-22T05:24:13.793Z,87.60
2018-07-22T05:26:54.901Z,87.90
2018-07-22T05:29:35.438Z,87.70
2018-07-22T05:32:16.253Z,87.60
2018-07-22T05:34:57.056Z,87.70
2018-07-22T05:37:38.353Z,87.00
2018-07-22T05:40:18.877Z,86.30
2018-07-22T05:42:59.610Z,85.60
2018-07-22T05:45:40.868Z,85.50
2018-07-22T05:48:21.530Z,85.80
2018-07-22T05:51:02.096Z,85.00
2018-07-22T05:53:42.736Z,84.60
2018-07-22T05:56:23.525Z,84.00
2018-07-22T05:59:04.491Z,84.20
2018-07-22T06:01:45.275Z,84.00
2018-07-22T06:04:26.548Z,85.00
2018-07-22T06:07:07.715Z,83.70
2018-07-22T06:12:29.896Z,82.40
2018-07-22T06:15:10.721Z,82.70
2018-07-22T06:17:51.800Z,82.00
2018-07-22T06:20:33.822Z,82.40
2018-07-22T06:23:15.025Z,83.50
2018-07-22T06:25:56.311Z,82.90
2018-07-22T06:28:37.521Z,82.20
2018-07-22T06:31:18.370Z,80.40
2018-07-22T06:33:59.404Z,80.80
2018-07-22T06:36:40.333Z,81.40
2018-07-22T06:39:21.216Z,80.50
2018-07-22T06:42:02.304Z,79.70
2018-07-22T06:44:42.925Z,79.40
2018-07-22T06:47:23.636Z,77.90
2018-07-22T06:50:04.707Z,77.80
2018-07-22T06:52:45.490Z,76.80
2018-07-22T06:55:26.579Z,76.00
2018-07-22T06:58:07.841Z,75.70
2018-07-22T07:00:48.426Z,75.40
2018-07-22T07:03:29.210Z,75.30
2018-07-22T07:06:09.715Z,75.00
2018-07-22T07:08:50.656Z,74.00
2018-07-22T07:11:31.344Z,72.30
2018-07-22T07:16:52.832Z,71.90
2018-07-22T07:19:33.578Z,70.60
2018-07-22T07:22:14.151Z,70.40
2018-07-22T07:24:54.736Z,70.80
2018-07-22T07:27:35.275Z,68.60
2018-07-22T07:30:15.892Z,68.00
2018-07-22T07:32:56.335Z,67.30
2018-07-22T07:35:37.140Z,68.80
2018-07-22T07:38:17.933Z,67.90
2018-07-22T07:40:58.956Z,66.50
2018-07-22T07:43:39.819Z,67.40
2018-07-22T07:46:20.674Z,65.60
2018-07-22T07:49:01.765Z,65.10
2018-07-22T07:51:42.492Z,65.20
2018-07-22T07:54:23.299Z,62.40
2018-07-22T07:57:03.721Z,62.70
2018-07-22T07:59:44.690Z,58.90
2018-07-22T08:02:26.336Z,58.80
2018-07-22T08:05:07.237Z,57.70
2018-07-22T08:07:48.024Z,56.40
2018-07-22T08:10:29.297Z,53.60
2018-07-22T08:13:10.325Z,51.60
2018-07-22T08:15:50.840Z,50.40
2018-07-22T08:18:31.715Z,48.50
2018-07-22T08:21:13.120Z,46.60
2018-07-22T08:23:54.426Z,44.60
2018-07-22T08:26:35.480Z,46.70
2018-07-22T08:29:23.534Z,47.00
2018-07-22T08:32:06.027Z,45.00
2018-07-22T08:34:47.148Z,44.40
2018-07-22T08:37:29.065Z,42.80
2018-07-22T08:40:10.390Z,42.10
2018-07-22T08:42:58.417Z,41.00
2018-07-22T08:45:39.337Z,39.50
2018-07-22T08:48:19.967Z,39.50
2018-07-22T08:51:00.929Z,38.20
2018-07-22T08:53:42.040Z,36.50
2018-07-22T08:56:22.986Z,36.40
2018-07-22T08:59:04.436Z,34.50
2018-07-22T09:01:45.074Z,34.60
2018-07-22T09:04:25.889Z,32.80
2018-07-22T09:07:06.556Z,32.40
2018-07-22T09:09:47.114Z,31.30
2018-07-22T09:12:28.251Z,31.80
2018-07-22T09:15:08.857Z,31.50
2018-07-22T09:17:49.733Z,31.10
2018-07-22T09:20:30.811Z,30.00
2018-07-22T09:23:11.871Z,29.50
2018-07-22T09:25:52.848Z,29.60
2018-07-22T09:28:33.417Z,29.70
2018-07-22T09:31:14.600Z,28.90
2018-07-22T09:33:55.754Z,29.00
2018-07-22T09:36:36.668Z,27.00
2018-07-22T09:39:18.194Z,27.60
2018-07-22T09:41:59.191Z,28.20
2018-07-22T09:44:40.424Z,29.40
2018-07-22T09:47:22.598Z,27.60
2018-07-22T09:50:03.032Z,27.50
2018-07-22T09:52:44.275Z,27.20
2018-07-22T09:55:25.736Z,26.90
2018-07-22T09:58:06.224Z,26.30
2018-07-22T10:00:53.447Z,25.20
2018-07-22T10:03:34.868Z,24.90
2018-07-22T10:06:15.381Z,23.90
2018-07-22T10:08:55.872Z,24.50
2018-07-22T10:11:36.358Z,25.30
2018-07-22T10:14:16.977Z,25.90
2018-07-22T10:16:57.926Z,25.70
2018-07-22T10:19:38.429Z,26.50
2018-07-22T10:24:59.710Z,25.30
2018-07-22T10:27:41.092Z,25.50
2018-07-22T10:30:21.465Z,26.90
2018-07-22T10:33:02.186Z,27.10
2018-07-22T10:35:42.944Z,26.70
2018-07-22T10:38:23.597Z,28.50
2018-07-22T10:41:04.386Z,28.20
2018-07-22T10:43:45.407Z,27.10
2018-07-22T10:46:27.141Z,27.70
2018-07-22T10:49:08.214Z,27.90
2018-07-22T10:51:48.895Z,27.30
2018-07-22T10:54:29.459Z,27.00
2018-07-22T10:57:11.005Z,27.10
2018-07-22T10:59:51.751Z,28.70
2018-07-22T11:02:32.399Z,30.30
2018-07-22T11:05:13.010Z,30.30
2018-07-22T11:07:53.881Z,30.00
2018-07-22T11:10:34.424Z,29.30
2018-07-22T11:13:14.759Z,27.70
2018-07-22T11:15:55.534Z,27.90
2018-07-22T11:18:37.553Z,28.80
2018-07-22T11:21:18.410Z,28.70
2018-07-22T11:24:00.060Z,28.50
2018-07-22T11:29:40.626Z,29.20
2018-07-22T11:32:21.244Z,30.90
2018-07-22T11:35:02.121Z,30.80
2018-07-22T11:37:42.616Z,30.70
2018-07-22T11:40:23.552Z,29.60
2018-07-22T11:43:04.153Z,29.20
2018-07-22T11:45:45.293Z,29.60
2018-07-22T11:48:26.273Z,30.00
2018-07-22T11:51:07.009Z,30.60
2018-07-22T11:53:47.440Z,31.40
2018-07-22T11:56:28.349Z,31.70
2018-07-22T11:59:09.522Z,31.80
2018-07-22T12:01:49.932Z,33.10
2018-07-22T12:04:30.484Z,33.70
2018-07-22T12:07:11.774Z,33.90
2018-07-22T12:09:52.572Z,33.80
2018-07-22T12:12:33.963Z,32.90
2018-07-22T12:15:15.720Z,33.40
2018-07-22T12:17:56.668Z,31.40
2018-07-22T12:20:37.530Z,29.50
2018-07-22T12:23:18.817Z,30.00
2018-07-22T12:26:00.229Z,29.20
2018-07-22T12:28:40.989Z,29.30
2018-07-22T12:31:21.829Z,29.30
2018-07-22T12:34:03.882Z,29.10
2018-07-22T12:36:44.636Z,30.40
2018-07-22T12:39:25.208Z,30.40
2018-07-22T12:42:06.111Z,31.70
2018-07-22T12:44:46.617Z,32.70
2018-07-22T12:47:27.480Z,32.60
2018-07-22T12:50:08.011Z,32.60
2018-07-22T12:52:48.637Z,31.60
2018-07-22T12:55:29.347Z,32.10
2018-07-22T12:58:09.744Z,31.70
2018-07-22T13:00:50.144Z,30.60
2018-07-22T13:03:31.014Z,30.40
2018-07-22T13:06:11.738Z,31.40
2018-07-22T13:08:52.307Z,32.20
2018-07-22T13:11:33.292Z,32.20
2018-07-22T13:14:14.318Z,31.20
2018-07-22T13:16:55.163Z,31.50
2018-07-22T13:19:36.049Z,32.10
2018-07-22T13:22:16.492Z,31.50
2018-07-22T13:24:57.541Z,32.30
2018-07-22T13:27:38.357Z,33.30
2018-07-22T13:30:19.851Z,33.20
2018-07-22T13:33:00.360Z,32.80
2018-07-22T13:35:40.959Z,33.50
2018-07-22T13:38:21.960Z,33.50
2018-07-22T13:41:02.621Z,33.20
2018-07-22T13:43:43.558Z,34.30
2018-07-22T13:46:24.382Z,33.20
2018-07-22T13:49:04.964Z,33.60
2018-07-22T13:54:26.322Z,34.10
2018-07-22T13:57:07.338Z,34.30
2018-07-22T13:59:48.294Z,34.20
2018-07-22T14:02:28.829Z,33.90
2018-07-22T14:05:12.153Z,34.00
2018-07-22T14:07:53.410Z,34.10
2018-07-22T14:10:34.253Z,34.40
2018-07-22T14:13:16.272Z,33.70
2018-07-22T14:15:57.075Z,34.20
2018-07-22T14:18:37.873Z,34.70
2018-07-22T14:21:18.436Z,34.60
2018-07-22T14:23:59.208Z,34.50
2018-07-22T14:26:40.509Z,34.50
2018-07-22T14:29:20.989Z,35.70
2018-07-22T14:32:02.195Z,36.30
2018-07-22T14:34:43.532Z,35.40
2018-07-22T14:37:37.378Z,35.10
2018-07-22T14:40:18.196Z,35.40
2018-07-22T14:42:59.099Z,35.50
2018-07-22T14:45:39.860Z,35.70
2018-07-22T14:48:21.095Z,35.80
2018-07-22T14:51:02.061Z,35.70
2018-07-22T14:53:42.543Z,36.40
2018-07-22T14:56:23.400Z,35.80
2018-07-22T14:59:04.324Z,36.10
2018-07-22T15:01:44.860Z,38.00
2018-07-22T15:04:25.480Z,38.60
2018-07-22T15:07:06.369Z,39.00
2018-07-22T15:09:47.151Z,39.80
2018-07-22T15:12:28.391Z,39.70
2018-07-22T15:15:09.129Z,40.40
2018-07-22T15:17:50.451Z,41.40
2018-07-22T15:20:31.273Z,41.70
2018-07-22T15:23:12.368Z,41.50
2018-07-22T15:25:53.633Z,41.20
2018-07-22T15:28:34.610Z,42.70
2018-07-22T15:31:15.088Z,43.50
2018-07-22T15:33:56.914Z,43.60
2018-07-22T15:36:37.479Z,43.30
2018-07-22T15:39:18.453Z,43.50
2018-07-22T15:44:39.709Z,43.30
2018-07-22T15:47:20.668Z,43.90
2018-07-22T15:50:01.582Z,43.40
2018-07-22T15:52:42.099Z,43.20
2018-07-22T15:58:03.422Z,43.10
2018-07-22T16:00:44.468Z,43.60
2018-07-22T16:03:25.176Z,43.60
2018-07-22T16:06:05.609Z,43.40
2018-07-22T16:08:46.132Z,43.70
2018-07-22T16:11:26.692Z,44.00
2018-07-22T16:14:07.957Z,44.30
2018-07-22T16:16:49.124Z,45.10
2018-07-22T16:19:30.079Z,44.80
2018-07-22T16:22:10.693Z,45.50
2018-07-22T16:24:51.267Z,44.60
2018-07-22T16:27:32.136Z,44.50
2018-07-22T16:30:13.670Z,45.20
2018-07-22T16:32:54.686Z,45.30
2018-07-22T16:35:35.313Z,44.80
2018-07-22T16:38:15.771Z,45.00
2018-07-22T16:40:56.490Z,45.50
2018-07-22T16:43:37.047Z,45.10
2018-07-22T16:46:17.600Z,44.90
2018-07-22T16:48:59.285Z,44.60
2018-07-22T16:54:21.160Z,46.50
2018-07-22T16:57:01.858Z,46.10
2018-07-22T16:59:43.066Z,45.80
2018-07-22T17:02:23.513Z,46.00
2018-07-22T17:05:04.075Z,45.90
2018-07-22T17:07:44.616Z,45.80
2018-07-22T17:10:26.140Z,46.20
2018-07-22T17:13:07.466Z,46.00
2018-07-22T17:15:48.425Z,45.40
2018-07-22T17:18:29.800Z,44.40
2018-07-22T17:21:10.819Z,44.60
2018-07-22T17:23:51.817Z,43.50
2018-07-22T17:26:32.600Z,43.40
2018-07-22T17:29:13.372Z,45.90
2018-07-22T17:31:54.332Z,46.30
2018-07-22T17:34:35.297Z,47.20
2018-07-22T17:37:16.358Z,47.60
2018-07-22T17:39:59.791Z,48.00
2018-07-22T17:42:40.961Z,48.70
2018-07-22T17:45:22.067Z,49.00
2018-07-22T17:48:03.590Z,48.20
2018-07-22T17:50:44.466Z,48.00
2018-07-22T17:53:26.077Z,48.00
2018-07-22T17:56:07.288Z,48.10
2018-07-22T17:58:48.080Z,48.20
2018-07-22T18:01:30.286Z,48.10
2018-07-22T18:04:11.206Z,48.10
2018-07-22T18:06:52.104Z,48.20
2018-07-22T18:09:34.379Z,48.40
2018-07-22T18:12:15.955Z,48.60
2018-07-22T18:14:56.890Z,48.90
2018-07-22T18:17:38.287Z,49.30
2018-07-22T18:23:00.123Z,49.20
2018-07-22T18:25:41.577Z,49.30
2018-07-22T18:28:23.125Z,49.60
2018-07-22T18:31:04.114Z,50.20
2018-07-22T18:33:45.144Z,50.60
2018-07-22T18:36:26.310Z,50.60
2018-07-22T18:39:10.309Z,51.00
2018-07-22T18:41:51.443Z,51.40
2018-07-22T18:44:32.609Z,51.60
2018-07-22T18:47:14.251Z,51.80
2018-07-22T18:49:55.188Z,52.20
2018-07-22T18:52:36.088Z,52.30
2018-07-22T18:55:18.186Z,52.70
2018-07-22T18:57:59.379Z,53.00
2018-07-22T19:00:40.340Z,53.20
2018-07-22T19:03:24.093Z,53.40
2018-07-22T19:06:04.800Z,53.90
2018-07-22T19:08:45.728Z,54.20
2018-07-22T19:11:26.686Z,54.30
2018-07-22T19:14:07.569Z,54.60
2018-07-22T19:16:48.309Z,54.70
2018-07-22T19:19:28.886Z,54.90
2018-07-22T19:22:10.537Z,55.10
2018-07-22T19:24:51.643Z,55.30
2018-07-22T19:27:32.884Z,55.30
2018-07-22T19:30:13.325Z,55.40
2018-07-22T19:32:53.848Z,55.40
2018-07-22T19:38:15.353Z,55.70
2018-07-22T19:40:55.915Z,56.20
2018-07-22T19:43:37.198Z,56.40
2018-07-22T19:46:17.946Z,56.10
2018-07-22T19:48:58.847Z,56.00
2018-07-22T19:51:40.285Z,56.40
2018-07-22T19:54:22.109Z,56.50
2018-07-22T19:57:02.643Z,56.40
2018-07-22T19:59:43.003Z,56.70
2018-07-22T20:02:23.572Z,56.40
2018-07-22T20:05:04.121Z,56.70
2018-07-22T20:07:45.605Z,56.50
2018-07-22T20:10:26.685Z,56.70
2018-07-22T20:13:07.376Z,57.00
2018-07-22T20:15:48.376Z,57.20
2018-07-22T20:18:29.757Z,56.90
2018-07-22T20:21:10.227Z,57.60
2018-07-22T20:23:51.530Z,56.90
2018-07-22T20:29:13.396Z,57.90
2018-07-22T20:31:54.781Z,57.10
2018-07-22T20:34:35.646Z,57.20
2018-07-22T20:37:16.216Z,57.80
2018-07-22T20:39:58.022Z,57.50
2018-07-22T20:42:39.182Z,57.50
2018-07-22T20:45:20.603Z,57.60
2018-07-22T20:48:01.761Z,57.80
2018-07-22T20:50:43.095Z,58.30
2018-07-22T20:53:24.875Z,59.20
2018-07-22T20:56:06.436Z,59.70
2018-07-22T20:58:49.185Z,59.20
2018-07-22T21:01:30.153Z,60.60
2018-07-22T21:04:10.747Z,60.20
2018-07-22T21:06:51.418Z,61.00
2018-07-22T21:09:32.605Z,63.00
2018-07-22T21:12:55.913Z,63.40
2018-07-22T21:15:37.434Z,63.90
2018-07-22T21:18:17.875Z,65.00
2018-07-22T21:20:58.680Z,65.70
2018-07-22T21:26:20.084Z,66.80
2018-07-22T21:29:00.631Z,67.20
2018-07-22T21:31:41.744Z,67.70
2018-07-22T21:34:22.229Z,67.90
2018-07-22T21:37:03.141Z,68.40
2018-07-22T21:39:44.330Z,68.70
2018-07-22T21:42:24.761Z,68.90
2018-07-22T21:45:06.779Z,69.50
2018-07-22T21:47:47.428Z,69.50
2018-07-22T21:50:28.827Z,70.20
2018-07-22T21:53:09.402Z,70.70
2018-07-22T21:55:50.056Z,70.90
2018-07-22T21:58:31.047Z,71.10
2018-07-22T22:01:11.701Z,71.70
2018-07-22T22:03:52.777Z,72.10
2018-07-22T22:06:33.701Z,72.40
2018-07-22T22:09:14.291Z,72.80
2018-07-22T22:11:55.273Z,73.20
2018-07-22T22:14:36.573Z,73.70
2018-07-22T22:17:17.994Z,74.20
2018-07-22T22:19:59.070Z,74.50
2018-07-22T22:22:40.405Z,74.60
2018-07-22T22:25:22.299Z,74.90
2018-07-22T22:28:02.813Z,75.20
2018-07-22T22:30:43.555Z,75.30
2018-07-22T22:33:24.460Z,75.80
2018-07-22T22:36:05.122Z,76.20
2018-07-22T22:38:46.041Z,76.90
2018-07-22T22:41:26.833Z,77.80
2018-07-22T22:44:08.204Z,77.50
2018-07-22T22:46:49.131Z,76.80
2018-07-22T22:49:30.412Z,77.50
2018-07-22T22:52:11.356Z,77.80
2018-07-22T22:54:52.376Z,78.00
2018-07-22T22:57:34.150Z,78.10
2018-07-22T23:00:14.672Z,78.20
2018-07-22T23:02:55.727Z,78.80
2018-07-22T23:05:36.498Z,78.10
2018-07-22T23:08:17.491Z,78.50
2018-07-22T23:10:58.408Z,79.00
2018-07-22T23:13:39.230Z,79.10
2018-07-22T23:16:21.014Z,79.20
2018-07-22T23:19:02.317Z,79.60
2018-07-22T23:21:44.584Z,80.10
2018-07-22T23:24:25.542Z,80.20
2018-07-22T23:27:06.464Z,80.50
2018-07-22T23:29:47.046Z,80.90
2018-07-22T23:32:29.511Z,81.00
2018-07-22T23:35:10.274Z,81.00
2018-07-22T23:37:51.112Z,81.10
2018-07-22T23:40:32.172Z,81.00
2018-07-22T23:43:13.352Z,81.40
2018-07-22T23:45:54.373Z,81.70
2018-07-22T23:48:35.000Z,81.40
2018-07-22T23:51:16.083Z,81.70
2018-07-22T23:53:57.916Z,81.50
2018-07-22T23:56:38.852Z,81.00
2018-07-22T23:59:19.345Z,80.50
